• Join FlightAware (Why Join?)
  • Login
  • US Flag 
01:25AM EDT


 

Airport Tracker/Info


-or-


 

Live Flight TrackerFlight Track Log ✈ ASQ5610 ✈ 07-Apr-2013 ✈ KDFW - KCVG

Flight Track Log - Related Links

Times and Time Zones

All times are in EDT time to prevent confusion due to time zone crossing. See the ASQ5610 flight status page for this flight to view local times or setup timezone preferences in your user account.

Time Position Orientation Groundspeed Altitude Reporting Facility
EDT Latitude Longitude Course Direction KTS MPH feet Rate Location/Type
06:09PM 32.7667 -96.9667 59° Northeast 261 300 5,500  Level Dallas / Fort Worth TRACON
06:10PM 32.7667 -96.8667 90° East 307 353 7,700 2,400 Climbing Dallas / Fort Worth TRACON
06:11PM 32.8000 -96.7833 65° Northeast 324 373 10,400 1,860 Climbing Dallas / Fort Worth TRACON
06:13PM 33.0141 -96.4145 57° Northeast  Level FlightAware Approximate
06:13PM 32.9350 -96.5669 53° Northeast 376 433 13,800  Level Fort Worth Center
06:14PM 33.0759 -96.2983 59° Northeast  Level FlightAware Approximate
06:14PM 33.0072 -96.4572 52° Northeast 405 466 15,900  Level Fort Worth Center
06:15PM 33.0753 -96.3450 54° Northeast 418 481 17,800 2,100 Climbing Fort Worth Center
06:16PM 33.1178 -96.2131 69° East 423 487 20,200 2,040 Climbing Fort Worth Center
06:17PM 33.1583 -96.0783 70° East 423 487 22,000 1,800 Climbing Fort Worth Center
06:18PM 33.1944 -95.9539 71° East 428 493 23,900 1,740 Climbing Fort Worth Center
06:19PM 33.2344 -95.8189 70° East 428 493 25,500 1,320 Climbing Fort Worth Center
06:20PM 33.2767 -95.6817 70° East 434 499 26,500 1,020 Climbing Fort Worth Center
06:21PM 33.3203 -95.5242 72° East 439 505 27,600 1,020 Climbing Fort Worth Center
06:22PM 33.3597 -95.3742 72° East 450 518 28,600 960 Climbing Fort Worth Center
06:23PM 33.4050 -95.2214 70° East 470 541 29,600 960 Climbing Fort Worth Center
06:24PM 33.4525 -95.0683 70° East 476 548 30,600 960 Climbing Fort Worth Center
06:25PM 33.4953 -94.9100 72° East 487 560 31,600 960 Climbing Fort Worth Center
06:26PM 33.5400 -94.7569 71° East 487 560 32,600 960 Climbing Fort Worth Center
06:27PM 33.5825 -94.6008 72° East 487 560 33,600 960 Climbing Fort Worth Center
06:28PM 33.6292 -94.4447 70° East 487 560 34,600 660 Climbing Fort Worth Center
06:29PM 33.6675 -94.3039 72° East 487 560 35,000 180 Climbing Fort Worth Center
06:30PM 33.7219 -94.1519 67° East 487 560 35,000  Level Fort Worth Center
06:31PM 33.7975 -94.0042 58° Northeast 497 572 35,000  Level Fort Worth Center
06:31PM 33.8533 -93.9039 56° Northeast 498 573 35,000  Level Memphis Center
06:32PM 33.9156 -93.7664 61° Northeast 511 588 35,000  Level Memphis Center
06:33PM 33.9883 -93.6214 59° Northeast 511 588 35,000  Level Memphis Center
06:34PM 34.0608 -93.4711 60° Northeast 517 595 35,000  Level Memphis Center
06:35PM 34.1356 -93.3208 59° Northeast 517 595 35,000  Level Memphis Center
06:36PM 34.2078 -93.1725 59° Northeast 517 595 35,000  Level Memphis Center
06:37PM 34.2781 -93.0217 61° Northeast 517 595 35,000  Level Memphis Center
06:38PM 34.3500 -92.8628 61° Northeast 517 595 35,000  Level Memphis Center
06:39PM 34.4217 -92.7164 59° Northeast 518 596 35,000  Level Memphis Center
06:40PM 34.4933 -92.5672 60° Northeast 512 589 35,000  Level Memphis Center
06:41PM 34.5714 -92.4003 60° Northeast 518 596 35,000  Level Memphis Center
06:42PM 34.6467 -92.2506 59° Northeast 518 596 35,000  Level Memphis Center
06:43PM 34.7300 -92.1133 54° Northeast 518 596 35,000  Level Memphis Center
06:44PM 34.8278 -91.9864 47° Northeast 513 590 35,000  Level Memphis Center
06:45PM 34.9275 -91.8642 45° Northeast 503 579 35,000  Level Memphis Center
06:46PM 35.0228 -91.7392 47° Northeast 503 579 35,000  Level Memphis Center
06:47PM 35.1178 -91.6161 47° Northeast 498 573 35,000  Level Memphis Center
06:48PM 35.2150 -91.4906 47° Northeast 498 573 35,000  Level Memphis Center
06:49PM 35.3122 -91.3622 47° Northeast 498 573 35,000  Level Memphis Center
06:50PM 35.4089 -91.2386 46° Northeast 504 580 35,000  Level Memphis Center
06:51PM 35.4972 -91.1272 46° Northeast 499 574 35,000  Level Memphis Center
06:52PM 35.5961 -90.9978 47° Northeast 504 580 35,000  Level Memphis Center
06:53PM 35.6842 -90.8836 46° Northeast 499 574 35,000  Level Memphis Center
06:54PM 35.7847 -90.7461 48° Northeast 499 574 35,000  Level Memphis Center
06:55PM 35.8789 -90.6131 49° Northeast 499 574 35,000  Level Memphis Center
06:56PM 35.9772 -90.4853 46° Northeast 504 580 35,000  Level Memphis Center
06:57PM 36.0731 -90.3544 48° Northeast 504 580 35,000  Level Memphis Center
06:58PM 36.1731 -90.2233 47° Northeast 504 580 35,000  Level Memphis Center
06:59PM 36.2708 -90.0919 47° Northeast 509 586 35,000  Level Memphis Center
07:00PM 36.3686 -89.9600 47° Northeast 514 592 35,000  Level Memphis Center
07:01PM 36.4764 -89.8175 47° Northeast 514 592 35,000 -360 Level Memphis Center
07:02PM 36.5736 -89.6853 48° Northeast 514 592 34,300 -900 Descending Memphis Center
07:03PM 36.6708 -89.5497 48° Northeast 514 592 33,300 -660 Descending Memphis Center
07:04PM 36.7658 -89.4194 48° Northeast 514 592 33,000 -180 Descending Memphis Center
07:05PM 36.8606 -89.2861 48° Northeast 514 592 33,000  Level Memphis Center
07:06PM 36.9553 -89.1550 48° Northeast 514 592 33,000  Level Memphis Center
07:07PM 37.0517 -89.0208 48° Northeast 514 592 33,000  Level Memphis Center
07:08PM 37.1461 -88.8892 48° Northeast 514 592 33,000  Level Memphis Center
07:09PM 37.2425 -88.7544 48° Northeast 514 592 33,000  Level Memphis Center
07:10PM 37.3364 -88.6222 48° Northeast 514 592 33,000 -360 Level Memphis Center
07:11PM 37.4303 -88.4922 48° Northeast 514 592 32,300 -840 Descending Memphis Center
07:13PM 37.5608 -88.2936 50° Northeast 516 594 31,000 -540 Descending Indianapolis Center
07:14PM 37.6531 -88.1617 49° Northeast 519 597 31,000  Level Indianapolis Center
07:15PM 37.7497 -88.0225 49° Northeast 520 598 31,000  Level Indianapolis Center
07:16PM 37.8492 -87.8778 49° Northeast 525 604 31,000  Level Indianapolis Center
07:17PM 37.9383 -87.7300 53° Northeast 528 608 31,000 -120 Level Indianapolis Center
07:18PM 37.9939 -87.5575 68° East 532 612 30,800 -720 Descending Indianapolis Center
07:19PM 38.0592 -87.3508 68° East 527 606 29,600 -1,080 Descending Indianapolis Center
07:20PM 38.1117 -87.1844 68° East 514 592 28,600 -1,020 Descending Indianapolis Center
07:21PM 38.1617 -87.0222 69° East 505 581 27,600 -1,080 Descending Indianapolis Center
07:22PM 38.2114 -86.8639 68° East 494 568 26,500 -1,320 Descending Indianapolis Center
07:23PM 38.2617 -86.7011 68° East 498 573 24,900 -1,800 Descending Indianapolis Center
07:24PM 38.3236 -86.5022 68° East 503 579 22,800 -1,920 Descending Indianapolis Center
07:25PM 38.3733 -86.3406 69° East 493 567 21,000 -1,860 Descending Indianapolis Center
07:26PM 38.4225 -86.1817 68° East 482 555 19,000 -1,980 Descending Indianapolis Center
07:27PM 38.4700 -86.0289 68° East 465 535 17,000 -1,920 Descending Indianapolis Center
07:28PM 38.5161 -85.8800 68° East 452 520 15,100 -1,800 Descending Indianapolis Center
07:29PM 38.5586 -85.7367 69° East 431 496 13,400 -1,620 Descending Indianapolis Center
07:30PM 38.6042 -85.6061 66° East 406 467 11,800 -1,200 Descending Indianapolis Center
07:31PM 38.6658 -85.4717 60° Northeast 385 443 11,000 -420 Descending Indianapolis Center
07:32PM 38.7181 -85.3528 61° Northeast 381 438 11,000  Level Indianapolis Center
07:33PM 38.7667 -85.2383 61° Northeast 365 420 11,000  Level Indianapolis Center
07:35PM 38.8156 -85.1247 61° Northeast 361 415 11,000  Level Indianapolis Center
07:36PM 38.8753 -85.0164 55° Northeast 370 426 11,000 -300 Level Indianapolis Center
07:37PM 38.9386 -84.9119 52° Northeast 369 425 10,500 -780 Descending Indianapolis Center
07:38PM 39.0000 -84.8167 50° Northeast 288 331 9,500 -1,320 Descending Cincinnati TRACON
07:39PM 39.0500 -84.7167 57° Northeast 294 338 8,000 -1,560 Descending Cincinnati TRACON
07:40PM 39.0833 -84.6167 67° East 287 330 6,300 -1,740 Descending Cincinnati TRACON
07:40PM 39.1167 -84.5667 49° Northeast 267 307 4,900 -2,040 Descending Cincinnati TRACON
07:41PM 39.1383 -84.5661 North 285 328 4,100 -900 Descending Indianapolis Center
07:42PM 39.2094 -84.5456 13° North 284 327 3,700 -420 Descending Indianapolis Center
07:43PM 39.1833 -84.6500 252° West 173 199 3,000 -540 Descending Cincinnati TRACON
07:44PM 39.1333 -84.6667 194° South 175 201 2,300 -840 Descending Cincinnati TRACON
07:45PM 39.1000 -84.6667 180° South 141 162 1,400 -900 Descending Cincinnati TRACON
07:47PM 39.0488 -84.6678 223° Southwest  Level Estimated
07:54PM 39.0488 -84.6678 223° Southwest  Level Estimated